createdAt,value
2019-03-23T00:00:13.126Z,65.82
2019-03-23T00:02:43.384Z,66.33
2019-03-23T00:05:12.515Z,66.88
2019-03-23T00:07:41.330Z,67.20
2019-03-23T00:10:10.936Z,66.54
2019-03-23T00:12:39.717Z,65.31
2019-03-23T00:15:09.080Z,64.79
2019-03-23T00:17:37.914Z,64.59
2019-03-23T00:20:06.735Z,64.85
2019-03-23T00:22:35.834Z,65.44
2019-03-23T00:25:04.920Z,64.47
2019-03-23T00:27:33.766Z,65.14
2019-03-23T00:30:02.555Z,65.82
2019-03-23T00:32:31.474Z,65.69
2019-03-23T00:35:00.366Z,65.87
2019-03-23T00:37:29.401Z,66.18
2019-03-23T00:39:58.217Z,66.23
2019-03-23T00:42:27.332Z,67.02
2019-03-23T00:44:56.599Z,67.49
2019-03-23T00:47:25.424Z,68.04
2019-03-23T00:49:54.340Z,68.14
2019-03-23T00:52:23.273Z,68.37
2019-03-23T00:54:52.078Z,70.03
2019-03-23T00:57:20.961Z,68.82
2019-03-23T00:59:49.710Z,69.28
2019-03-23T01:02:18.977Z,69.33
2019-03-23T01:04:47.803Z,69.67
2019-03-23T01:07:16.925Z,68.95
2019-03-23T01:09:45.777Z,69.54
2019-03-23T01:12:14.565Z,69.80
2019-03-23T01:14:43.511Z,70.12
2019-03-23T01:17:12.356Z,68.44
2019-03-23T01:19:41.256Z,68.80
2019-03-23T01:22:11.155Z,68.44
2019-03-23T01:24:40.306Z,68.92
2019-03-23T01:27:14.720Z,68.46
2019-03-23T01:29:44.325Z,68.08
2019-03-23T01:32:13.481Z,67.86
2019-03-23T01:34:42.296Z,68.37
2019-03-23T01:37:11.146Z,68.59
2019-03-23T01:39:39.893Z,69.11
2019-03-23T01:42:08.832Z,69.04
2019-03-23T01:44:38.373Z,68.79
2019-03-23T01:47:07.259Z,68.87
2019-03-23T01:49:36.056Z,69.13
2019-03-23T01:52:04.770Z,68.99
2019-03-23T01:54:34.017Z,68.88
2019-03-23T01:57:02.790Z,69.02
2019-03-23T01:59:31.960Z,69.23
2019-03-23T02:02:01.336Z,68.88
2019-03-23T02:04:30.441Z,69.80
2019-03-23T02:06:59.504Z,70.34
2019-03-23T02:09:28.702Z,71.26
2019-03-23T02:11:57.553Z,70.64
2019-03-23T02:14:26.629Z,69.00
2019-03-23T02:16:55.481Z,71.03
2019-03-23T02:19:24.402Z,70.50
2019-03-23T02:21:53.226Z,70.83
2019-03-23T02:24:22.067Z,70.04
2019-03-23T02:26:55.238Z,70.75
2019-03-23T02:29:24.944Z,70.59
2019-03-23T02:31:53.829Z,71.17
2019-03-23T02:34:22.783Z,71.19
2019-03-23T02:36:51.573Z,70.11
2019-03-23T02:39:21.124Z,70.16
2019-03-23T02:41:49.974Z,70.75
2019-03-23T02:44:19.546Z,71.15
2019-03-23T02:46:48.426Z,71.44
2019-03-23T02:49:17.365Z,71.96
2019-03-23T02:51:46.225Z,71.68
2019-03-23T02:54:15.062Z,72.05
2019-03-23T02:56:43.920Z,71.58
2019-03-23T02:59:13.129Z,71.49
2019-03-23T03:01:42.264Z,71.93
2019-03-23T03:04:11.061Z,72.21
2019-03-23T03:06:39.909Z,72.12
2019-03-23T03:09:09.047Z,72.40
2019-03-23T03:11:38.194Z,72.73
2019-03-23T03:14:07.118Z,73.87
2019-03-23T03:16:36.023Z,74.42
2019-03-23T03:19:04.931Z,74.44
2019-03-23T03:21:34.854Z,72.54
2019-03-23T03:24:03.746Z,72.22
2019-03-23T03:26:32.601Z,71.77
2019-03-23T03:29:01.459Z,72.35
2019-03-23T03:31:30.427Z,73.58
2019-03-23T03:33:59.245Z,73.77
2019-03-23T03:36:30.035Z,72.98
2019-03-23T03:38:59.092Z,73.30
2019-03-23T03:41:28.096Z,74.94
2019-03-23T03:43:56.905Z,74.83
2019-03-23T03:46:26.113Z,74.07
2019-03-23T03:48:54.938Z,74.78
2019-03-23T03:51:24.160Z,73.63
2019-03-23T03:53:52.980Z,73.73
2019-03-23T03:56:21.775Z,73.83
2019-03-23T03:58:51.015Z,73.76
2019-03-23T04:01:19.915Z,74.42
2019-03-23T04:03:48.898Z,74.27
2019-03-23T04:06:17.852Z,74.38
2019-03-23T04:08:48.027Z,74.40
2019-03-23T04:11:16.822Z,74.22
2019-03-23T04:13:45.959Z,74.34
2019-03-23T04:16:15.088Z,75.07
2019-03-23T04:18:43.916Z,74.92
2019-03-23T04:21:12.726Z,75.04
2019-03-23T04:23:41.856Z,76.14
2019-03-23T04:26:10.689Z,77.22
2019-03-23T04:28:39.471Z,77.20
2019-03-23T04:31:10.453Z,76.74
2019-03-23T04:33:39.314Z,76.41
2019-03-23T04:36:08.112Z,76.84
2019-03-23T04:38:37.198Z,76.21
2019-03-23T04:41:06.341Z,76.30
2019-03-23T04:43:35.387Z,76.56
2019-03-23T04:46:04.245Z,76.19
2019-03-23T04:48:33.385Z,76.03
2019-03-23T04:51:02.173Z,75.71
2019-03-23T04:53:31.369Z,75.69
2019-03-23T04:56:00.198Z,75.80
2019-03-23T04:58:30.794Z,75.72
2019-03-23T05:01:00.988Z,76.38
2019-03-23T05:03:30.389Z,76.26
2019-03-23T05:05:59.173Z,75.26
2019-03-23T05:08:33.189Z,75.54
2019-03-23T05:10:58.735Z,75.76
2019-03-23T05:13:28.689Z,76.02
2019-03-23T05:15:57.477Z,76.39
2019-03-23T05:18:26.575Z,75.77
2019-03-23T05:20:55.671Z,76.63
2019-03-23T05:23:24.812Z,77.37
2019-03-23T05:25:53.913Z,77.35
2019-03-23T05:28:23.054Z,77.20
2019-03-23T05:30:52.413Z,77.37
2019-03-23T05:33:21.244Z,77.68
2019-03-23T05:35:50.014Z,78.33
2019-03-23T05:38:18.813Z,78.57
2019-03-23T05:40:47.605Z,78.26
2019-03-23T05:43:16.862Z,77.69
2019-03-23T05:45:45.686Z,76.20
2019-03-23T05:48:14.854Z,77.21
2019-03-23T05:50:43.980Z,75.47
2019-03-23T05:53:13.099Z,76.23
2019-03-23T05:55:42.193Z,75.74
2019-03-23T05:58:11.032Z,74.64
2019-03-23T06:00:39.817Z,74.26
2019-03-23T06:03:08.623Z,74.23
2019-03-23T06:05:37.452Z,74.41
2019-03-23T06:08:06.485Z,74.02
2019-03-23T06:10:36.271Z,73.76
2019-03-23T06:13:05.326Z,73.83
2019-03-23T06:15:34.114Z,73.00
2019-03-23T06:18:03.287Z,73.57
2019-03-23T06:20:32.169Z,73.12
2019-03-23T06:23:00.967Z,73.43
2019-03-23T06:25:29.791Z,73.19
2019-03-23T06:27:58.667Z,72.72
2019-03-23T06:30:27.544Z,72.39
2019-03-23T06:32:59.345Z,72.39
2019-03-23T06:35:28.441Z,72.17
2019-03-23T06:37:57.239Z,71.54
2019-03-23T06:40:26.324Z,71.67
2019-03-23T06:42:59.700Z,70.58
2019-03-23T06:45:26.514Z,70.98
2019-03-23T06:47:55.614Z,70.58
2019-03-23T06:50:24.400Z,68.66
2019-03-23T06:52:53.187Z,67.55
2019-03-23T06:55:21.936Z,66.68
2019-03-23T06:57:50.704Z,66.61
2019-03-23T07:00:19.477Z,65.86
2019-03-23T07:02:48.884Z,65.72
2019-03-23T07:05:17.668Z,64.97
2019-03-23T07:07:46.845Z,64.84
2019-03-23T07:10:16.119Z,64.44
2019-03-23T07:12:44.855Z,65.67
2019-03-23T07:15:20.055Z,65.54
2019-03-23T07:17:44.383Z,65.95
2019-03-23T07:20:13.512Z,65.69
2019-03-23T07:22:42.865Z,63.54
2019-03-23T07:25:11.683Z,62.87
2019-03-23T07:27:40.456Z,62.76
2019-03-23T07:30:12.266Z,62.50
2019-03-23T07:32:41.434Z,61.24
2019-03-23T07:35:10.545Z,60.22
2019-03-23T07:37:39.743Z,60.35
2019-03-23T07:40:08.928Z,60.12
2019-03-23T07:42:37.792Z,59.98
2019-03-23T07:45:06.769Z,59.26
2019-03-23T07:47:35.665Z,59.01
2019-03-23T07:50:05.512Z,58.54
2019-03-23T07:52:34.595Z,58.30
2019-03-23T07:55:10.729Z,58.87
2019-03-23T07:57:40.050Z,58.54
2019-03-23T08:00:10.592Z,58.54
2019-03-23T08:02:39.816Z,58.02
2019-03-23T08:05:08.668Z,56.55
2019-03-23T08:07:37.574Z,57.37
2019-03-23T08:10:06.527Z,56.51
2019-03-23T08:12:35.440Z,56.28
2019-03-23T08:15:05.277Z,56.34
2019-03-23T08:17:34.120Z,55.73
2019-03-23T08:20:03.512Z,55.52
2019-03-23T08:22:32.693Z,55.68
2019-03-23T08:25:01.614Z,55.22
2019-03-23T08:27:30.413Z,56.59
2019-03-23T08:29:59.369Z,55.30
2019-03-23T08:32:28.891Z,55.56
2019-03-23T08:34:58.727Z,53.86
2019-03-23T08:37:27.889Z,53.96
2019-03-23T08:39:56.849Z,52.76
2019-03-23T08:42:26.827Z,52.38
2019-03-23T08:44:55.571Z,51.86
2019-03-23T08:47:24.404Z,51.63
2019-03-23T08:49:53.435Z,51.89
2019-03-23T08:52:22.329Z,51.77
2019-03-23T08:54:51.076Z,51.19
2019-03-23T08:57:19.873Z,50.90
2019-03-23T08:59:48.987Z,50.17
2019-03-23T09:02:18.091Z,50.70
2019-03-23T09:04:47.303Z,50.53
2019-03-23T09:07:16.473Z,50.30
2019-03-23T09:09:45.422Z,50.51
2019-03-23T09:12:14.347Z,49.41
2019-03-23T09:14:43.300Z,49.22
2019-03-23T09:17:12.432Z,48.86
2019-03-23T09:19:41.592Z,48.59
2019-03-23T09:22:10.409Z,48.13
2019-03-23T09:24:39.190Z,47.91
2019-03-23T09:27:08.396Z,47.58
2019-03-23T09:29:37.517Z,47.64
2019-03-23T09:32:06.385Z,46.94
2019-03-23T09:34:35.480Z,47.09
2019-03-23T09:37:04.467Z,46.83
2019-03-23T09:39:33.569Z,46.41
2019-03-23T09:42:02.397Z,46.81
2019-03-23T09:44:31.256Z,45.64
2019-03-23T09:47:00.067Z,44.66
2019-03-23T09:49:31.297Z,44.53
2019-03-23T09:52:00.169Z,43.76
2019-03-23T09:54:29.092Z,44.37
2019-03-23T09:56:59.584Z,42.83
2019-03-23T09:59:29.329Z,42.88
2019-03-23T10:01:58.408Z,42.61
2019-03-23T10:04:27.264Z,42.17
2019-03-23T10:06:56.031Z,41.44
2019-03-23T10:09:24.899Z,40.76
2019-03-23T10:11:53.703Z,40.13
2019-03-23T10:14:22.806Z,39.88
2019-03-23T10:16:51.682Z,39.30
2019-03-23T10:19:20.604Z,38.73
2019-03-23T10:21:49.424Z,38.80
2019-03-23T10:24:18.238Z,38.62
2019-03-23T10:26:47.077Z,37.98
2019-03-23T10:29:16.169Z,38.07
2019-03-23T10:31:45.510Z,38.01
2019-03-23T10:34:14.335Z,38.01
2019-03-23T10:36:43.189Z,36.41
2019-03-23T10:39:11.970Z,35.88
2019-03-23T10:41:40.840Z,35.84
2019-03-23T10:44:10.118Z,35.95
2019-03-23T10:46:39.646Z,35.43
2019-03-23T10:49:09.022Z,34.78
2019-03-23T10:51:37.938Z,33.84
2019-03-23T10:54:07.080Z,33.29
2019-03-23T10:56:36.046Z,33.45
2019-03-23T10:59:05.211Z,32.53
2019-03-23T11:01:34.715Z,32.14
2019-03-23T11:04:03.523Z,32.40
2019-03-23T11:06:32.450Z,32.34
2019-03-23T11:09:01.484Z,32.84
2019-03-23T11:11:32.142Z,32.22
2019-03-23T11:14:02.214Z,31.80
2019-03-23T11:16:30.958Z,32.03
2019-03-23T11:19:00.136Z,31.36
2019-03-23T11:21:28.954Z,31.45
2019-03-23T11:23:57.812Z,31.41
2019-03-23T11:26:28.134Z,30.66
2019-03-23T11:28:57.512Z,30.83
2019-03-23T11:31:26.339Z,30.82
2019-03-23T11:33:56.242Z,31.00
2019-03-23T11:36:25.196Z,31.12
2019-03-23T11:38:54.011Z,31.99
2019-03-23T11:41:23.043Z,30.77
2019-03-23T11:43:51.934Z,30.39
2019-03-23T11:46:21.030Z,31.67
2019-03-23T11:48:50.445Z,31.48
2019-03-23T11:51:19.644Z,31.54
2019-03-23T11:53:48.424Z,30.67
2019-03-23T11:56:17.475Z,31.26
2019-03-23T11:58:46.554Z,31.22
2019-03-23T12:01:15.401Z,30.93
2019-03-23T12:03:44.483Z,31.67
2019-03-23T12:06:13.334Z,31.20
2019-03-23T12:08:42.209Z,31.29
2019-03-23T12:11:11.025Z,30.67
2019-03-23T12:13:40.061Z,30.18
2019-03-23T12:16:09.330Z,30.27
2019-03-23T12:18:38.227Z,30.77
2019-03-23T12:21:07.085Z,30.01
2019-03-23T12:23:36.157Z,29.33
2019-03-23T12:26:05.438Z,30.69
2019-03-23T12:28:34.808Z,30.26
2019-03-23T12:31:11.953Z,30.70
2019-03-23T12:33:47.002Z,30.67
2019-03-23T12:36:16.013Z,30.11
2019-03-23T12:38:45.012Z,29.03
2019-03-23T12:41:22.721Z,30.07
2019-03-23T12:43:44.959Z,30.35
2019-03-23T12:46:14.859Z,30.66
2019-03-23T12:48:43.962Z,30.23
2019-03-23T12:51:12.764Z,30.06
2019-03-23T12:53:42.115Z,28.47
2019-03-23T12:56:11.575Z,29.00
2019-03-23T12:58:40.454Z,29.04
2019-03-23T13:01:09.293Z,28.80
2019-03-23T13:03:38.184Z,28.73
2019-03-23T13:06:07.036Z,28.24
2019-03-23T13:08:35.886Z,28.09
2019-03-23T13:11:04.888Z,27.07
2019-03-23T13:13:34.158Z,26.76
2019-03-23T13:16:02.986Z,26.84
2019-03-23T13:18:31.913Z,27.04
2019-03-23T13:21:03.145Z,26.61
2019-03-23T13:23:34.089Z,26.11
2019-03-23T13:26:02.903Z,25.91
2019-03-23T13:28:31.671Z,23.62
2019-03-23T13:31:01.962Z,23.27
2019-03-23T13:33:30.751Z,22.18
2019-03-23T13:35:59.648Z,20.89
2019-03-23T13:38:29.499Z,20.62
2019-03-23T13:40:58.562Z,20.22
2019-03-23T13:43:27.907Z,18.92
2019-03-23T13:45:56.809Z,19.53
2019-03-23T13:48:25.808Z,20.02
2019-03-23T13:50:55.256Z,18.50
2019-03-23T13:53:24.351Z,18.14
2019-03-23T13:55:53.561Z,18.54
2019-03-23T13:58:22.680Z,16.87
2019-03-23T14:00:51.941Z,16.58
2019-03-23T14:03:20.693Z,15.74
2019-03-23T14:05:49.495Z,15.45
2019-03-23T14:08:19.699Z,16.63
2019-03-23T14:10:49.355Z,16.69
2019-03-23T14:13:18.563Z,16.12
2019-03-23T14:15:47.930Z,15.54
2019-03-23T14:18:17.511Z,14.94
2019-03-23T14:20:46.480Z,15.42
2019-03-23T14:23:15.632Z,16.26
2019-03-23T14:25:44.981Z,16.49
2019-03-23T14:28:14.143Z,15.89
2019-03-23T14:30:43.230Z,14.23
2019-03-23T14:33:12.394Z,14.78
2019-03-23T14:35:46.031Z,14.93
2019-03-23T14:38:14.947Z,14.67
2019-03-23T14:40:43.900Z,15.80
2019-03-23T14:43:12.686Z,16.24
2019-03-23T14:45:41.670Z,14.91
2019-03-23T14:48:10.621Z,14.09
2019-03-23T14:50:39.414Z,14.80
2019-03-23T14:53:08.277Z,14.89
2019-03-23T14:55:37.533Z,15.47
2019-03-23T14:58:06.602Z,15.12
2019-03-23T15:00:36.172Z,14.68
2019-03-23T15:03:04.959Z,14.88
2019-03-23T15:05:33.773Z,13.65
2019-03-23T15:08:02.671Z,15.45
2019-03-23T15:10:31.478Z,14.52
2019-03-23T15:13:01.404Z,15.49
2019-03-23T15:15:30.226Z,15.31
2019-03-23T15:18:00.138Z,16.34
2019-03-23T15:20:28.891Z,15.93
2019-03-23T15:22:58.266Z,15.88
2019-03-23T15:25:27.390Z,16.53
2019-03-23T15:27:58.390Z,15.83
2019-03-23T15:30:27.181Z,15.16
2019-03-23T15:32:56.038Z,14.82
2019-03-23T15:35:24.835Z,13.86
2019-03-23T15:37:53.656Z,14.54
2019-03-23T15:40:22.461Z,15.23
2019-03-23T15:42:52.967Z,16.41
2019-03-23T15:45:21.795Z,17.43
2019-03-23T15:47:50.687Z,16.92
2019-03-23T15:50:19.859Z,17.02
2019-03-23T15:52:48.764Z,17.34
2019-03-23T15:55:17.628Z,17.76
2019-03-23T15:57:46.409Z,17.08
2019-03-23T16:00:25.027Z,16.84
2019-03-23T16:02:53.810Z,17.20
2019-03-23T16:05:23.085Z,17.48
2019-03-23T16:07:52.053Z,17.82
2019-03-23T16:10:20.894Z,17.29
2019-03-23T16:12:50.113Z,17.45
2019-03-23T16:15:19.000Z,17.65
2019-03-23T16:17:48.011Z,18.27
2019-03-23T16:20:17.301Z,18.97
2019-03-23T16:22:46.745Z,19.42
2019-03-23T16:25:15.567Z,18.13
2019-03-23T16:27:44.783Z,18.65
2019-03-23T16:30:16.217Z,19.59
2019-03-23T16:32:45.009Z,19.40
2019-03-23T16:35:13.753Z,20.09
2019-03-23T16:37:42.592Z,19.44
2019-03-23T16:40:11.485Z,19.22
2019-03-23T16:42:45.217Z,20.77
2019-03-23T16:45:11.167Z,21.07
2019-03-23T16:47:40.067Z,20.88
2019-03-23T16:50:09.645Z,21.25
2019-03-23T16:52:39.585Z,21.30
2019-03-23T16:55:08.884Z,21.59
2019-03-23T16:57:37.809Z,24.40
2019-03-23T17:00:07.665Z,26.50
2019-03-23T17:02:36.749Z,27.48
2019-03-23T17:05:06.011Z,28.36
2019-03-23T17:07:35.938Z,29.01
2019-03-23T17:10:05.915Z,29.23
2019-03-23T17:12:34.944Z,29.79
2019-03-23T17:15:04.644Z,30.78
2019-03-23T17:17:33.648Z,31.90
2019-03-23T17:20:03.213Z,32.76
2019-03-23T17:22:32.156Z,32.83
2019-03-23T17:25:01.244Z,33.22
2019-03-23T17:27:30.437Z,33.85
2019-03-23T17:29:59.233Z,34.04
2019-03-23T17:32:28.171Z,34.51
2019-03-23T17:35:00.973Z,34.71
2019-03-23T17:37:30.388Z,35.64
2019-03-23T17:39:59.244Z,36.01
2019-03-23T17:42:31.475Z,36.90
2019-03-23T17:45:00.364Z,36.61
2019-03-23T17:47:30.410Z,36.95
2019-03-23T17:49:59.960Z,37.14
2019-03-23T17:52:28.746Z,37.55
2019-03-23T17:54:57.986Z,37.90
2019-03-23T17:57:27.631Z,38.25
2019-03-23T17:59:56.405Z,38.73
2019-03-23T18:02:25.409Z,39.10
2019-03-23T18:04:54.278Z,38.98
2019-03-23T18:07:25.401Z,39.11
2019-03-23T18:09:54.181Z,39.46
2019-03-23T18:12:22.982Z,40.07
2019-03-23T18:14:51.836Z,40.41
2019-03-23T18:17:21.702Z,40.27
2019-03-23T18:19:50.566Z,40.50
2019-03-23T18:22:19.397Z,40.42
2019-03-23T18:24:49.559Z,40.67
2019-03-23T18:27:18.930Z,40.46
2019-03-23T18:29:50.775Z,40.31
2019-03-23T18:32:19.684Z,40.53
2019-03-23T18:34:49.139Z,40.44
2019-03-23T18:37:19.369Z,40.58
2019-03-23T18:39:48.594Z,40.89
2019-03-23T18:42:17.431Z,41.08
2019-03-23T18:44:46.987Z,41.25
2019-03-23T18:47:16.738Z,41.63
2019-03-23T18:49:46.426Z,41.60
2019-03-23T18:52:17.048Z,41.80
2019-03-23T18:54:46.070Z,41.47
2019-03-23T18:57:15.343Z,41.46
2019-03-23T18:59:44.279Z,41.43
2019-03-23T19:02:13.166Z,41.58
2019-03-23T19:04:42.238Z,41.55
2019-03-23T19:07:11.049Z,41.80
2019-03-23T19:09:39.946Z,41.96
2019-03-23T19:12:08.924Z,41.84
2019-03-23T19:14:38.159Z,42.01
2019-03-23T19:17:07.019Z,41.91
2019-03-23T19:19:36.023Z,42.02
2019-03-23T19:22:04.858Z,42.79
2019-03-23T19:24:33.663Z,43.00
2019-03-23T19:27:03.132Z,43.07
2019-03-23T19:29:31.999Z,43.38
2019-03-23T19:32:01.987Z,43.58
2019-03-23T19:34:31.904Z,44.67
2019-03-23T19:37:00.785Z,45.56
2019-03-23T19:39:29.951Z,45.56
2019-03-23T19:41:58.899Z,46.76
2019-03-23T19:44:28.167Z,47.06
2019-03-23T19:46:57.281Z,46.93
2019-03-23T19:49:26.170Z,47.31
2019-03-23T19:51:54.965Z,47.49
2019-03-23T19:54:23.791Z,47.57
2019-03-23T19:56:53.080Z,49.02
2019-03-23T19:59:21.833Z,47.95
2019-03-23T20:01:50.732Z,49.11
2019-03-23T20:04:20.468Z,49.06
2019-03-23T20:06:49.398Z,49.40
2019-03-23T20:09:18.489Z,50.16
2019-03-23T20:11:48.061Z,50.18
2019-03-23T20:14:17.111Z,50.50
2019-03-23T20:16:45.922Z,51.54
2019-03-23T20:19:14.809Z,51.30
2019-03-23T20:21:43.615Z,50.84
2019-03-23T20:24:13.046Z,49.94
2019-03-23T20:26:41.875Z,49.73
2019-03-23T20:29:10.995Z,50.29
2019-03-23T20:31:39.905Z,50.96
2019-03-23T20:34:08.725Z,51.26
2019-03-23T20:36:37.829Z,51.94
2019-03-23T20:39:07.219Z,52.15
2019-03-23T20:41:37.975Z,51.94
2019-03-23T20:44:09.761Z,51.94
2019-03-23T20:46:37.798Z,51.89
2019-03-23T20:49:07.107Z,53.26
2019-03-23T20:51:36.105Z,53.34
2019-03-23T20:54:05.038Z,53.28
2019-03-23T20:56:39.064Z,53.60
2019-03-23T20:59:08.412Z,54.35
2019-03-23T21:01:37.401Z,54.87
2019-03-23T21:04:06.593Z,55.15
2019-03-23T21:06:35.749Z,55.65
2019-03-23T21:09:06.640Z,56.00
2019-03-23T21:11:35.891Z,56.42
2019-03-23T21:14:04.779Z,56.56
2019-03-23T21:16:34.027Z,57.09
2019-03-23T21:19:03.141Z,57.35
2019-03-23T21:21:32.136Z,57.57
2019-03-23T21:24:01.038Z,57.68
2019-03-23T21:26:32.889Z,57.58
2019-03-23T21:29:01.810Z,58.59
2019-03-23T21:31:30.665Z,59.01
2019-03-23T21:33:59.775Z,59.51
2019-03-23T21:36:28.991Z,59.83
2019-03-23T21:38:57.827Z,59.58
2019-03-23T21:41:26.681Z,60.09
2019-03-23T21:43:55.498Z,60.29
2019-03-23T21:46:27.104Z,60.86
2019-03-23T21:48:56.427Z,60.91
2019-03-23T21:51:27.153Z,61.15
2019-03-23T21:53:55.978Z,61.41
2019-03-23T21:56:24.880Z,61.98
2019-03-23T21:58:54.232Z,62.11
2019-03-23T22:01:23.467Z,62.14
2019-03-23T22:03:52.390Z,62.27
2019-03-23T22:06:21.302Z,62.90
2019-03-23T22:08:50.193Z,63.22
2019-03-23T22:11:19.061Z,63.40
2019-03-23T22:13:47.891Z,63.77
2019-03-23T22:16:17.293Z,63.97
2019-03-23T22:18:47.420Z,64.01
2019-03-23T22:21:16.286Z,63.97
2019-03-23T22:23:45.074Z,64.18
2019-03-23T22:26:13.840Z,64.66
2019-03-23T22:28:42.685Z,64.89
2019-03-23T22:31:11.512Z,64.86
2019-03-23T22:33:40.307Z,64.67
2019-03-23T22:36:09.391Z,65.22
2019-03-23T22:38:38.124Z,65.24
2019-03-23T22:41:06.906Z,65.35
2019-03-23T22:43:36.042Z,65.57
2019-03-23T22:46:17.423Z,65.93
2019-03-23T22:48:48.889Z,66.18
2019-03-23T22:51:17.787Z,67.02
2019-03-23T22:53:46.572Z,66.66
2019-03-23T22:56:15.572Z,66.78
2019-03-23T22:58:44.425Z,66.47
2019-03-23T23:01:13.794Z,67.40
2019-03-23T23:03:42.817Z,67.53
2019-03-23T23:06:11.722Z,67.38
2019-03-23T23:08:40.501Z,67.58
2019-03-23T23:11:09.407Z,67.76
2019-03-23T23:13:38.219Z,67.72
2019-03-23T23:16:07.352Z,67.89
2019-03-23T23:18:36.555Z,67.96
2019-03-23T23:21:05.389Z,68.28
2019-03-23T23:23:34.527Z,68.45
2019-03-23T23:26:03.497Z,69.03
2019-03-23T23:28:32.371Z,69.13
2019-03-23T23:31:01.517Z,69.04
2019-03-23T23:33:30.329Z,69.30
2019-03-23T23:35:59.593Z,69.32
2019-03-23T23:38:28.555Z,69.57
2019-03-23T23:40:57.667Z,69.85
2019-03-23T23:43:26.716Z,69.93
2019-03-23T23:45:55.568Z,70.80
2019-03-23T23:48:24.447Z,70.95
2019-03-23T23:50:53.994Z,70.50
2019-03-23T23:53:22.903Z,70.18
2019-03-23T23:55:51.731Z,70.31
2019-03-23T23:58:20.622Z,71.09
